Arapahoe, CO

3:05 AM MDT on May 23, 2015 (GMT -0600)
KWS | | Change Station
CLOSE
Current Station
Personal Weather Station
Location: Cheyenne Wells, CO
Elevation: 4252 ft
Nearby Weather Stations

Elev 4252 ft 38.82 °N, 102.33 °W | Updated 4 minutes ago

Overcast
Overcast
54.8 °F
Feels Like 54.8 °F
N
12.0
Wind Variable Wind from SSE
Gusts 12.0 mph

Today
High -- | Low -- °F
--% Chance of Precip.
Yesterday
High -- | Low -- °F
Precip. -- in
5:30 AM 8:01 PM
Waxing Crescent, 28% visible
Pressure 29.94 in
Visibility 0.2 miles
Clouds
Dew Point 53 °F
Humidity 95%
Rainfall 0.00 in
Snow Depth Not available.
UV Not available.
Pollen 2.40 out of 12
Air Quality Not available.
Flu Activity Sporadic
METAR KITR 230853Z AUTO VRB03KT 1/4SM FG VV002 12/11 A3002 RMK AO2 SLP136 T01170111 51004

More Conditions Fewer Conditions

Pressure 29.94 in
Visibility 0.2 miles
Clouds
Dew Point 53 °F
Humidity 95%
Rainfall 0.00 in
Snow Depth Not available.
UV Not available.
Pollen 2.40 out of 12
Air Quality Not available.
Flu Activity Sporadic
METAR KITR 230853Z AUTO VRB03KT 1/4SM FG VV002 12/11 A3002 RMK AO2 SLP136 T01170111 51004

More Conditions Fewer Conditions

10-Day Weather Forecast

Almanac

Astronomy

May. 23, 2015 Rise Set
Actual Time
Civil Twilight
Nautical Twilight
Astronomical Twilight
Moon
Length of Visible Light
Length of Day
Tomorrow will be .
, % of the Moon is Illuminated

Today's Extremes

State Highs State Lows

Community

WunderPhotos

Upload Photos

1,823,403 photos uploaded!

WunderBlogs® & News

Nearby

Air Quality

  Air Quality AQ Index Pollutant
Not available.

Snow Depth

Station Depth Elevation

Earthquake Activity

City Distance Mag. Time & Date
Minimum magnitude displayed is 2.5.

Coastal Water Temperatures

Place Temperature

Stations

Nearby Weather Stations

Station Location Temp. Windchill Dew Point Humidity Wind Precip. Elev Updated Type